.
WxDataArchive / Data Records for 2015-01-18
2015-01-17 January 2015 2015-01-19

Data Records for Sunday, 18 January 2015

Time	Temp	Chill	HIndex	Humid	Dewpt	 Wind 	HiWind	WindDir	Rain 	Barom
-----	----	-----	------	-----	-----	------	------	-------	-----	-----
00:00	40.9	38.4	40.9	74	33.3	4	11	248	0.00	29.690 
00:05	40.5	40.5	40.5	76	33.5	2	7	248	0.00	29.690 
00:10	39.9	39.9	39.9	77	33.3	3	6	248	0.00	29.690 
00:15	39.6	39.6	39.6	79	33.6	2	5	248	0.00	29.690 
00:20	39.3	39.3	39.3	79	33.3	2	7	270	0.00	29.690 
00:25	39.2	39.2	39.2	80	33.6	2	5	270	0.00	29.690 
00:30	39.1	39.1	39.1	80	33.5	2	5	248	0.00	29.690 
00:35	38.9	38.9	38.9	80	33.3	2	7	270	0.00	29.690 
00:40	38.9	38.9	38.9	80	33.3	2	6	248	0.00	29.690 
00:45	38.8	38.8	38.8	80	33.2	2	5	248	0.00	29.691 
00:50	38.8	38.8	38.8	80	33.2	1	4	270	0.00	29.691 
00:55	38.6	38.6	38.6	81	33.3	2	8	248	0.00	29.691 
01:00	38.6	38.6	38.6	81	33.3	2	4	248	0.00	29.691 
01:05	38.5	38.5	38.5	81	33.2	2	6	248	0.00	29.691 
01:10	38.3	38.3	38.3	82	33.3	2	6	248	0.00	29.691 
01:15	38.3	38.3	38.3	82	33.3	2	6	248	0.00	29.692 
01:20	38.0	38.0	38.0	83	33.3	2	6	248	0.00	29.692 
01:25	37.9	37.9	37.9	84	33.5	2	9	248	0.00	29.692 
01:30	37.8	37.8	37.8	84	33.4	1	5	270	0.00	29.692 
01:35	37.6	37.6	37.6	84	33.2	1	6	248	0.00	29.692 
01:40	37.6	37.6	37.6	84	33.2	2	7	248	0.00	29.692 
01:45	37.5	37.5	37.5	85	33.4	1	5	248	0.00	29.690 
01:50	37.5	37.5	37.5	85	33.4	1	5	248	0.00	29.690 
01:55	37.5	37.5	37.5	85	33.4	1	3	248	0.00	29.690 
02:00	37.3	37.3	37.3	85	33.2	1	3	248	0.00	29.693 
02:05	37.3	37.3	37.3	85	33.2	1	4	248	0.00	29.693 
02:10	37.3	37.3	37.3	85	33.2	1	6	248	0.00	29.693 
02:15	37.3	37.3	37.3	85	33.2	1	7	248	0.00	29.695 
02:20	37.3	37.3	37.3	85	33.2	1	5	248	0.00	29.695 
02:25	37.3	37.3	37.3	85	33.2	1	3	248	0.00	29.695 
02:30	37.2	37.2	37.2	85	33.1	0	3	248	0.00	29.698 
02:35	37.2	37.2	37.2	85	33.1	1	3	248	0.00	29.698 
02:40	37.2	37.2	37.2	85	33.1	0	3	248	0.00	29.698 
02:45	37.0	37.0	37.0	85	32.9	0	3	248	0.00	29.693 
02:50	37.0	37.0	37.0	85	32.9	0	3	248	0.00	29.693 
02:55	37.0	37.0	37.0	85	32.9	1	4	248	0.00	29.693 
03:00	36.9	36.9	36.9	86	33.1	1	4	248	0.00	29.694 
03:05	36.9	36.9	36.9	86	33.1	1	4	248	0.00	29.694 
03:10	36.8	36.8	36.8	86	33.0	0	3	248	0.00	29.694 
03:15	36.8	36.8	36.8	86	33.0	0	3	248	0.00	29.695 
03:20	36.8	36.8	36.8	86	33.0	1	3	248	0.00	29.695 
03:25	36.6	36.6	36.6	86	32.8	0	3	248	0.00	29.695 
03:30	36.6	36.6	36.6	86	32.8	0	2	248	0.00	29.693 
03:35	36.6	36.6	36.6	86	32.8	1	4	248	0.00	29.693 
03:40	36.5	36.5	36.5	86	32.7	0	2	248	0.00	29.693 
03:45	36.5	36.5	36.5	86	32.7	0	1	248	0.00	29.692 
03:50	36.3	36.3	36.3	86	32.5	0	2	248	0.00	29.692 
03:55	36.3	36.3	36.3	86	32.5	0	3	248	0.00	29.692 
04:00	36.3	36.3	36.3	86	32.5	0	2	248	0.00	29.686 
04:05	36.3	36.3	36.3	86	32.5	0	2	248	0.00	29.686 
04:10	36.3	36.3	36.3	86	32.5	0	3	248	0.00	29.686 
04:15	36.3	36.3	36.3	86	32.5	1	4	248	0.00	29.679 
04:20	36.3	36.3	36.3	86	32.5	0	2	248	0.00	29.679 
04:25	36.2	36.2	36.2	86	32.4	0	4	248	0.00	29.679 
04:30	36.2	36.2	36.2	86	32.4	0	2	248	0.00	29.672 
04:35	36.0	36.0	36.0	86	32.2	0	2	248	0.00	29.672 
04:40	36.2	36.2	36.2	85	32.1	0	2	248	0.00	29.672 
04:45	36.2	36.2	36.2	85	32.1	1	3	248	0.00	29.684 
04:50	36.3	36.3	36.3	85	32.2	0	3	248	0.00	29.684 
04:55	36.3	36.3	36.3	85	32.2	0	2	248	0.00	29.684 
05:00	36.3	36.3	36.3	84	31.9	0	2	248	0.00	29.681 
05:05	36.3	36.3	36.3	84	31.9	0	2	248	0.00	29.681 
05:10	36.3	36.3	36.3	84	31.9	0	3	248	0.00	29.681 
05:15	36.5	36.5	36.5	84	32.1	1	4	248	0.00	29.682 
05:20	36.5	36.5	36.5	84	32.1	1	4	248	0.00	29.682 
05:25	36.6	36.6	36.6	83	31.9	1	4	248	0.00	29.682 
05:30	36.6	36.6	36.6	83	31.9	1	3	248	0.00	29.684 
05:35	36.6	36.6	36.6	82	31.6	1	4	248	0.00	29.684 
05:40	36.6	36.6	36.6	82	31.6	1	3	248	0.00	29.684 
05:45	36.6	36.6	36.6	82	31.6	1	4	270	0.00	29.689 
05:50	36.6	36.6	36.6	82	31.6	1	4	248	0.00	29.689 
05:55	36.6	36.6	36.6	82	31.6	1	4	248	0.00	29.689 
06:00	36.6	36.6	36.6	82	31.6	0	3	248	0.00	29.690 
06:05	36.8	36.8	36.8	82	31.8	1	5	270	0.00	29.690 
06:10	36.8	36.8	36.8	82	31.8	2	6	270	0.00	29.690 
06:15	36.6	36.6	36.6	82	31.6	1	5	248	0.00	29.691 
06:20	36.6	36.6	36.6	82	31.6	1	4	248	0.00	29.691 
06:25	36.6	36.6	36.6	82	31.6	1	5	248	0.00	29.691 
06:30	36.6	36.6	36.6	82	31.6	2	4	270	0.00	29.692 
06:35	36.6	36.6	36.6	82	31.6	1	3	248	0.00	29.692 
06:40	36.5	36.5	36.5	82	31.5	2	5	248	0.00	29.692 
06:45	36.5	36.5	36.5	82	31.5	1	3	248	0.00	29.696 
06:50	36.5	36.5	36.5	83	31.8	2	6	248	0.00	29.696 
06:55	36.3	36.3	36.3	83	31.6	1	4	248	0.00	29.696 
07:00	36.3	36.3	36.3	83	31.6	2	5	248	0.00	29.702 
07:05	36.2	36.2	36.2	83	31.5	2	5	248	0.00	29.702 
07:10	36.2	36.2	36.2	84	31.8	1	4	248	0.00	29.702 
07:15	36.0	36.0	36.0	84	31.6	1	3	270	0.00	29.705 
07:20	36.0	36.0	36.0	84	31.6	2	5	248	0.00	29.705 
07:25	35.9	35.9	35.9	84	31.5	2	5	270	0.00	29.705 
07:30	35.9	35.9	35.9	84	31.5	1	2	270	0.00	29.710 
07:35	35.8	35.8	35.8	84	31.4	1	3	248	0.00	29.710 
07:40	35.6	35.6	35.6	84	31.3	1	4	270	0.00	29.710 
07:45	35.6	35.6	35.6	85	31.5	2	4	270	0.00	29.715 
07:50	35.5	35.5	35.5	85	31.4	1	4	270	0.00	29.715 
07:55	35.5	35.5	35.5	85	31.4	1	4	270	0.00	29.715 
08:00	35.5	35.5	35.5	85	31.4	1	4	248	0.00	29.723 
08:05	35.3	35.3	35.3	85	31.2	2	6	270	0.00	29.723 
08:10	35.3	35.3	35.3	85	31.2	1	5	270	0.00	29.723 
08:15	35.3	35.3	35.3	85	31.2	1	4	248	0.00	29.724 
08:20	35.3	35.3	35.3	85	31.2	1	3	248	0.00	29.724 
08:25	35.3	35.3	35.3	85	31.2	1	5	248	0.00	29.724 
08:30	35.3	35.3	35.3	85	31.2	2	4	270	0.00	29.734 
08:35	35.3	35.3	35.3	84	31.0	1	3	248	0.00	29.734 
08:40	35.3	35.3	35.3	84	31.0	1	4	248	0.00	29.734 
08:45	35.3	35.3	35.3	84	31.0	1	4	270	0.00	29.744 
08:50	35.3	35.3	35.3	84	31.0	2	5	270	0.00	29.744 
08:55	35.3	35.3	35.3	84	31.0	2	5	270	0.00	29.744 
09:00	35.3	35.3	35.3	84	31.0	2	5	270	0.00	29.752 
09:05	35.2	35.2	35.2	84	30.9	1	4	270	0.00	29.752 
09:10	35.2	35.2	35.2	83	30.6	1	3	270	0.00	29.752 
09:15	35.2	35.2	35.2	83	30.6	1	3	270	0.00	29.758 
09:20	35.2	35.2	35.2	83	30.6	2	5	248	0.00	29.758 
09:25	35.3	35.3	35.3	82	30.4	2	5	248	0.00	29.758 
09:30	35.3	35.3	35.3	82	30.4	1	3	248	0.00	29.763 
09:35	35.3	35.3	35.3	82	30.4	1	4	248	0.00	29.763 
09:40	35.3	35.3	35.3	82	30.4	1	3	248	0.00	29.763 
09:45	35.3	35.3	35.3	82	30.4	1	4	270	0.00	29.768 
09:50	35.3	35.3	35.3	81	30.1	2	4	248	0.00	29.768 
09:55	35.3	35.3	35.3	81	30.1	2	4	292	0.00	29.768 
10:00	35.3	35.3	35.3	80	29.8	2	4	270	0.00	29.778 
10:05	35.3	35.3	35.3	80	29.8	1	3	270	0.00	29.778 
10:10	35.5	35.5	35.5	80	30.0	1	3	270	0.00	29.778 
10:15	35.5	35.5	35.5	80	30.0	2	4	270	0.01	29.781 
10:20	35.6	35.6	35.6	80	30.1	1	3	270	0.00	29.781 
10:25	35.6	35.6	35.6	80	30.1	1	3	270	0.00	29.781 
10:30	35.6	35.6	35.6	80	30.1	1	5	270	0.00	29.785 
10:35	35.6	35.6	35.6	80	30.1	2	4	270	0.00	29.785 
10:40	35.6	35.6	35.6	80	30.1	1	4	270	0.00	29.785 
10:45	35.8	35.8	35.8	80	30.2	0	2	270	0.00	29.789 
10:50	35.8	35.8	35.8	80	30.2	0	2	270	0.00	29.789 
10:55	35.6	35.6	35.6	80	30.1	1	3	270	0.00	29.789 
11:00	35.6	35.6	35.6	80	30.1	1	3	270	0.00	29.793 
11:05	35.6	35.6	35.6	80	30.1	1	3	248	0.00	29.793 
11:10	35.6	35.6	35.6	80	30.1	0	2	248	0.00	29.793 
11:15	35.8	35.8	35.8	80	30.2	1	3	292	0.00	29.796 
11:20	35.8	35.8	35.8	80	30.2	1	3	292	0.00	29.796 
11:25	35.9	35.9	35.9	80	30.3	1	4	270	0.00	29.796 
11:30	36.0	36.0	36.0	79	30.1	1	5	270	0.00	29.796 
11:35	36.2	36.2	36.2	79	30.3	1	4	248	0.00	29.796 
11:40	36.2	36.2	36.2	78	30.0	1	4	248	0.00	29.796 
11:45	36.3	36.3	36.3	79	30.4	1	6	248	0.00	29.791 
11:50	36.3	36.3	36.3	79	30.4	1	3	270	0.00	29.791 
11:55	36.3	36.3	36.3	79	30.4	1	4	248	0.00	29.791 
12:00	36.2	36.2	36.2	79	30.3	1	4	248	0.00	29.791 
12:05	36.2	36.2	36.2	79	30.3	1	4	248	0.00	29.791 
12:10	36.2	36.2	36.2	79	30.3	1	4	270	0.00	29.791 
12:15	36.2	36.2	36.2	79	30.3	1	3	270	0.00	29.789 
12:20	36.2	36.2	36.2	80	30.6	1	3	248	0.00	29.789 
12:25	36.2	36.2	36.2	80	30.6	1	4	270	0.00	29.789 
12:30	36.2	36.2	36.2	80	30.6	1	3	270	0.00	29.786 
12:35	36.2	36.2	36.2	81	30.9	1	2	270	0.00	29.786 
12:40	36.6	36.6	36.6	81	31.3	1	2	270	0.00	29.786 
12:45	36.8	36.8	36.8	80	31.2	2	4	270	0.00	29.778 
12:50	36.9	36.9	36.9	80	31.3	1	3	270	0.00	29.778 
12:55	37.2	37.2	37.2	80	31.6	0	2	270	0.00	29.778 
13:00	37.3	37.3	37.3	79	31.4	1	3	270	0.00	29.778 
13:05	37.3	37.3	37.3	79	31.4	1	4	248	0.00	29.778 
13:10	37.3	37.3	37.3	79	31.4	1	3	248	0.00	29.778 
13:15	37.3	37.3	37.3	79	31.4	1	4	248	0.00	29.780 
13:20	37.3	37.3	37.3	78	31.1	1	4	248	0.00	29.780 
13:25	37.3	37.3	37.3	82	32.3	2	4	270	0.00	29.780 
13:30	37.2	37.2	37.2	78	31.0	1	3	270	0.00	29.784 
13:35	37.0	37.0	37.0	78	30.8	2	6	248	0.00	29.784 
13:40	36.8	36.8	36.8	78	30.6	1	3	248	0.00	29.784 
13:45	36.8	36.8	36.8	79	30.9	1	3	225	0.00	29.792 
13:50	36.6	36.6	36.6	79	30.7	2	7	270	0.00	29.792 
13:55	36.5	36.5	36.5	79	30.6	1	3	270	0.00	29.792 
14:00	36.3	36.3	36.3	80	30.7	1	4	270	0.00	29.796 
14:05	36.3	36.3	36.3	80	30.7	1	3	270	0.00	29.796 
14:10	36.2	36.2	36.2	81	30.9	0	2	270	0.00	29.796 
14:15	36.0	36.0	36.0	81	30.7	1	4	248	0.00	29.803 
14:20	36.0	36.0	36.0	81	30.7	1	3	248	0.00	29.803 
14:25	35.9	35.9	35.9	82	31.0	1	5	248	0.00	29.803 
14:30	35.9	35.9	35.9	82	31.0	1	4	248	0.00	29.810 
14:35	35.9	35.9	35.9	82	31.0	2	5	270	0.00	29.810 
14:40	35.8	35.8	35.8	82	30.9	2	4	270	0.00	29.810 
14:45	35.8	35.8	35.8	82	30.9	1	4	270	0.00	29.815 
14:50	35.8	35.8	35.8	83	31.2	1	3	248	0.00	29.815 
14:55	35.8	35.8	35.8	83	31.2	0	2	270	0.00	29.815 
15:00	35.9	35.9	35.9	83	31.2	0	2	270	0.00	29.824 
15:05	36.0	36.0	36.0	83	31.3	0	2	270	0.00	29.824 
15:10	36.2	36.2	36.2	83	31.5	1	2	270	0.00	29.824 
15:15	36.3	36.3	36.3	82	31.3	1	3	270	0.00	29.828 
15:20	36.5	36.5	36.5	82	31.5	1	3	270	0.00	29.828 
15:25	36.8	36.8	36.8	81	31.5	1	2	270	0.00	29.828 
15:30	36.9	36.9	36.9	81	31.6	1	2	270	0.00	29.829 
15:35	37.0	37.0	37.0	80	31.4	1	3	270	0.00	29.829 
15:40	37.0	37.0	37.0	80	31.4	0	2	270	0.00	29.829 
15:45	37.0	37.0	37.0	80	31.4	1	3	270	0.00	29.837 
15:50	36.9	36.9	36.9	79	31.0	1	4	292	0.00	29.837 
15:55	36.9	36.9	36.9	79	31.0	1	2	292	0.00	29.837 
16:00	36.8	36.8	36.8	79	30.9	1	5	292	0.00	29.842 
16:05	36.8	36.8	36.8	79	30.9	1	3	270	0.00	29.842 
16:10	36.8	36.8	36.8	79	30.9	1	3	270	0.00	29.842 
16:15	36.8	36.8	36.8	79	30.9	1	3	270	0.00	29.850 
16:20	36.6	36.6	36.6	79	30.7	0	3	270	0.00	29.850 
16:25	36.6	36.6	36.6	80	31.0	0	3	270	0.00	29.850 
16:30	36.5	36.5	36.5	80	30.9	0	2	248	0.00	29.858 
16:35	36.5	36.5	36.5	80	30.9	1	3	248	0.00	29.858 
16:40	36.5	36.5	36.5	80	30.9	0	2	248	0.00	29.858 
16:45	36.3	36.3	36.3	80	30.7	0	1	248	0.00	29.869 
16:50	36.3	36.3	36.3	81	31.0	0	2	248	0.00	29.869 
16:55	36.2	36.2	36.2	81	30.9	1	3	248	0.00	29.869 
17:00	36.0	36.0	36.0	81	30.7	0	3	248	0.00	29.875 
17:05	36.0	36.0	36.0	81	30.7	0	1	248	0.00	29.875 
17:10	35.9	35.9	35.9	81	30.6	0	2	248	0.00	29.875 
17:15	35.9	35.9	35.9	81	30.6	1	3	248	0.00	29.881 
17:20	35.9	35.9	35.9	81	30.6	0	2	248	0.00	29.881 
17:25	35.9	35.9	35.9	81	30.6	0	2	248	0.00	29.881 
17:30	35.8	35.8	35.8	82	30.9	0	2	248	0.00	29.888 
17:35	35.8	35.8	35.8	82	30.9	0	1	248	0.00	29.888 
17:40	35.6	35.6	35.6	82	30.7	0	1	248	0.00	29.888 
17:45	35.6	35.6	35.6	82	30.7	0	1	248	0.00	29.892 
17:50	35.6	35.6	35.6	82	30.7	0	2	248	0.00	29.892 
17:55	35.6	35.6	35.6	82	30.7	0	2	248	0.00	29.892 
18:00	35.6	35.6	35.6	83	31.0	0	2	248	0.00	29.902 
18:05	35.5	35.5	35.5	83	30.9	0	3	248	0.00	29.902 
18:10	35.5	35.5	35.5	83	30.9	0	3	248	0.00	29.902 
18:15	35.5	35.5	35.5	83	30.9	0	2	248	0.00	29.905 
18:20	35.5	35.5	35.5	83	30.9	0	2	248	0.00	29.905 
18:25	35.5	35.5	35.5	83	30.9	0	3	248	0.00	29.905 
18:30	35.5	35.5	35.5	83	30.9	1	4	248	0.00	29.907 
18:35	35.3	35.3	35.3	83	30.7	1	3	270	0.00	29.907 
18:40	35.3	35.3	35.3	82	30.4	0	3	270	0.00	29.907 
18:45	35.3	35.3	35.3	82	30.4	1	3	248	0.00	29.916 
18:50	35.3	35.3	35.3	82	30.4	0	2	248	0.00	29.916 
18:55	35.2	35.2	35.2	82	30.3	1	2	292	0.00	29.916 
19:00	35.2	35.2	35.2	82	30.3	1	3	270	0.00	29.922 
19:05	35.2	35.2	35.2	82	30.3	1	3	270	0.00	29.922 
19:10	35.0	35.0	35.0	82	30.1	1	4	248	0.00	29.922 
19:15	35.0	35.0	35.0	82	30.1	1	3	248	0.00	29.923 
19:20	35.0	35.0	35.0	82	30.1	0	3	270	0.00	29.923 
19:25	34.9	34.9	34.9	82	30.0	0	2	270	0.00	29.923 
19:30	34.9	34.9	34.9	83	30.3	1	3	270	0.00	29.925 
19:35	34.7	34.7	34.7	83	30.1	1	3	248	0.00	29.925 
19:40	34.7	34.7	34.7	82	29.8	0	2	248	0.00	29.925 
19:45	34.7	34.7	34.7	82	29.8	0	2	248	0.00	29.926 
19:50	34.6	34.6	34.6	82	29.7	1	3	248	0.00	29.926 
19:55	34.4	34.4	34.4	82	29.5	0	2	248	0.00	29.926 
20:00	34.3	34.3	34.3	82	29.4	0	2	248	0.00	29.936 
20:05	34.1	34.1	34.1	83	29.5	0	2	248	0.00	29.936 
20:10	34.0	34.0	34.0	83	29.4	1	3	248	0.00	29.936 
20:15	33.8	33.8	33.8	83	29.2	1	3	248	0.00	29.943 
20:20	33.8	33.8	33.8	84	29.5	1	2	248	0.00	29.943 
20:25	33.7	33.7	33.7	84	29.4	0	3	248	0.00	29.943 
20:30	33.7	33.7	33.7	84	29.4	0	3	248	0.00	29.944 
20:35	33.5	33.5	33.5	84	29.2	0	3	248	0.00	29.944 
20:40	33.4	33.4	33.4	84	29.1	0	2	248	0.00	29.944 
20:45	33.4	33.4	33.4	84	29.1	1	3	248	0.00	29.952 
20:50	33.4	33.4	33.4	84	29.1	1	3	248	0.00	29.952 
20:55	33.4	33.4	33.4	84	29.1	1	4	248	0.00	29.952 
21:00	33.2	33.2	33.2	84	28.9	0	2	248	0.00	29.949 
21:05	33.1	33.1	33.1	84	28.8	0	2	248	0.00	29.949 
21:10	32.9	32.9	32.9	84	28.6	0	2	248	0.00	29.949 
21:15	32.8	32.8	32.8	85	28.8	0	2	248	0.00	29.957 
21:20	32.7	32.7	32.7	85	28.7	0	1	248	0.00	29.957 
21:25	32.5	32.5	32.5	85	28.5	0	1	248	0.00	29.957 
21:30	32.4	32.4	32.4	85	28.4	0	1	248	0.00	29.957 
21:35	32.4	32.4	32.4	86	28.7	0	1	248	0.00	29.957 
21:40	32.2	32.2	32.2	86	28.5	0	1	248	0.00	29.957 
21:45	32.4	32.4	32.4	86	28.7	0	1	248	0.00	29.959 
21:50	32.4	32.4	32.4	86	28.7	0	1	248	0.00	29.959 
21:55	32.5	32.5	32.5	86	28.8	0	0	---	0.00	29.959 
22:00	32.5	32.5	32.5	86	28.8	0	1	248	0.00	29.961 
22:05	32.5	32.5	32.5	87	29.1	0	0	---	0.00	29.961 
22:10	32.5	32.5	32.5	87	29.1	0	1	248	0.00	29.961 
22:15	32.7	32.7	32.7	87	29.3	0	0	---	0.00	29.969 
22:20	32.7	32.7	32.7	87	29.3	0	0	---	0.00	29.969 
22:25	32.7	32.7	32.7	87	29.3	0	0	---	0.00	29.969 
22:30	32.7	32.7	32.7	87	29.3	0	1	248	0.00	29.972 
22:35	32.8	32.8	32.8	87	29.4	0	1	248	0.00	29.972 
22:40	32.8	32.8	32.8	87	29.4	0	1	248	0.00	29.972 
22:45	32.8	32.8	32.8	87	29.4	0	1	248	0.00	29.973 
22:50	32.8	32.8	32.8	86	29.1	0	1	248	0.00	29.973 
22:55	32.8	32.8	32.8	86	29.1	0	0	---	0.00	29.973 
23:00	32.8	32.8	32.8	86	29.1	0	2	248	0.00	29.980 
23:05	32.9	32.9	32.9	86	29.2	0	1	248	0.00	29.980 
23:10	32.9	32.9	32.9	86	29.2	0	0	---	0.00	29.980 
23:15	32.9	32.9	32.9	86	29.2	0	1	248	0.00	29.986 
23:20	32.9	32.9	32.9	86	29.2	0	1	248	0.00	29.986 
23:25	32.9	32.9	32.9	86	29.2	0	2	248	0.00	29.986 
23:30	33.1	33.1	33.1	87	29.7	0	1	248	0.00	29.987 
23:35	33.1	33.1	33.1	86	29.4	0	2	248	0.00	29.987 
23:40	33.1	33.1	33.1	86	29.4	0	1	248	0.00	29.987 
23:45	33.1	33.1	33.1	86	29.4	0	0	---	0.00	29.989 
23:50	33.1	33.1	33.1	86	29.4	0	1	248	0.00	29.989 
23:55	33.1	33.1	33.1	86	29.4	0	1	248	0.00	29.989 

CoCoRaHS
IN-AL-39
A2 Web Hosting
Creative Commons License
GoDaddy
search engine by freefind advanced

loaded 2018-11-17 23:31:58 • last modified 2010-11-18 10:43:29
Privacy PolicyDisclaimer
• wx.awcolley.com is powered by PmWiki v.2002016 •
• all content (unless otherwise noted) © 2018 A W Colley